Snoqualmie River: Carnation station

back to: Snoqualmie river
Carnation station Summary - (NOAA Hydrograph: CRNW1)
flood stage: 54.0 ft
Latest reading:
Mon07/16 12:15 pm 45.77 ft 818 cfs (steady)
Past 24hr max:
Sun07/15 05:00 pm 45.81 ft 893 cfs
Forecasted crests: (published Mon 07/16/18 09:41 am)

Carnation station Details

Latest Readings

Last 100 Readings:
Mon07/16 12:15 pm 45.77 ft 818 cfs
Mon07/16 12:00 pm 45.77 ft 818 cfs
Mon07/16 11:45 am 45.75 ft 783 cfs
Mon07/16 11:30 am 45.75 ft 783 cfs
Mon07/16 11:15 am 45.77 ft 818 cfs
Mon07/16 11:00 am 45.74 ft 765 cfs
Mon07/16 10:45 am 45.76 ft 800 cfs
Mon07/16 10:30 am 45.76 ft 800 cfs
Mon07/16 10:15 am 45.75 ft 783 cfs
Mon07/16 10:00 am 45.75 ft 783 cfs
Mon07/16 09:45 am 45.77 ft 818 cfs
Mon07/16 09:30 am 45.77 ft 818 cfs
Mon07/16 09:15 am 45.77 ft 818 cfs
Mon07/16 09:00 am 45.77 ft 818 cfs
Mon07/16 08:45 am 45.77 ft 818 cfs
Mon07/16 08:30 am 45.78 ft 837 cfs
Mon07/16 08:15 am 45.77 ft 818 cfs
Mon07/16 08:00 am 45.78 ft 837 cfs
Mon07/16 07:45 am 45.78 ft 837 cfs
Mon07/16 07:30 am 45.78 ft 837 cfs
Mon07/16 07:15 am 45.78 ft 837 cfs
Mon07/16 07:00 am 45.78 ft 837 cfs
Mon07/16 06:45 am 45.78 ft 837 cfs
Mon07/16 06:30 am 45.78 ft 837 cfs
Mon07/16 06:15 am 45.78 ft 837 cfs
Mon07/16 06:00 am 45.78 ft 837 cfs
Mon07/16 05:45 am 45.78 ft 837 cfs
Mon07/16 05:30 am 45.78 ft 837 cfs
Mon07/16 05:15 am 45.78 ft 837 cfs
Mon07/16 05:00 am 45.78 ft 837 cfs
Mon07/16 04:45 am 45.78 ft 837 cfs
Mon07/16 04:30 am 45.78 ft 837 cfs
Mon07/16 04:15 am 45.79 ft 855 cfs
Mon07/16 04:00 am 45.79 ft 855 cfs
Mon07/16 03:45 am 45.79 ft 855 cfs
Mon07/16 03:30 am 45.79 ft 855 cfs
Mon07/16 03:15 am 45.79 ft 855 cfs
Mon07/16 03:00 am 45.79 ft 855 cfs
Mon07/16 02:45 am 45.79 ft 855 cfs
Mon07/16 02:30 am 45.79 ft 855 cfs
Mon07/16 02:15 am 45.79 ft 855 cfs
Mon07/16 02:00 am 45.8 ft 874 cfs
Mon07/16 01:45 am 45.79 ft 855 cfs
Mon07/16 01:30 am 45.8 ft 874 cfs
Mon07/16 01:15 am 45.8 ft 874 cfs
Mon07/16 01:00 am 45.8 ft 874 cfs
Mon07/16 12:45 am 45.8 ft 874 cfs
Mon07/16 12:30 am 45.8 ft 874 cfs
Mon07/16 12:15 am 45.8 ft 874 cfs
Mon07/16 12:00 am 45.8 ft 874 cfs
Sun07/15 11:45 pm 45.8 ft 874 cfs
Sun07/15 11:30 pm 45.8 ft 874 cfs
Sun07/15 11:15 pm 45.8 ft 874 cfs
Sun07/15 11:00 pm 45.8 ft 874 cfs
Sun07/15 10:45 pm 45.8 ft 874 cfs
Sun07/15 10:30 pm 45.81 ft 893 cfs
Sun07/15 10:15 pm 45.81 ft 893 cfs
Sun07/15 10:00 pm 45.81 ft 893 cfs
Sun07/15 09:45 pm 45.81 ft 893 cfs
Sun07/15 09:30 pm 45.81 ft 893 cfs
Sun07/15 09:15 pm 45.81 ft 893 cfs
Sun07/15 09:00 pm 45.81 ft 893 cfs
Sun07/15 08:45 pm 45.81 ft 893 cfs
Sun07/15 08:30 pm 45.81 ft 893 cfs
Sun07/15 08:15 pm 45.81 ft 893 cfs
Sun07/15 08:00 pm 45.81 ft 893 cfs
Sun07/15 07:45 pm 45.81 ft 893 cfs
Sun07/15 07:30 pm 45.81 ft 893 cfs
Sun07/15 07:15 pm 45.81 ft 893 cfs
Sun07/15 07:00 pm 45.81 ft 893 cfs
Sun07/15 06:45 pm 45.81 ft 893 cfs
Sun07/15 06:30 pm 45.81 ft 893 cfs
Sun07/15 06:15 pm 45.81 ft 893 cfs
Sun07/15 06:00 pm 45.81 ft 893 cfs
Sun07/15 05:45 pm 45.81 ft 893 cfs
Sun07/15 05:30 pm 45.8 ft 874 cfs
Sun07/15 05:15 pm 45.77 ft 818 cfs
Sun07/15 05:00 pm 45.81 ft 893 cfs
Sun07/15 04:45 pm 45.8 ft 874 cfs
Sun07/15 04:30 pm 45.77 ft 818 cfs
Sun07/15 04:15 pm 45.78 ft 837 cfs
Sun07/15 04:00 pm 45.8 ft 874 cfs
Sun07/15 03:45 pm 45.8 ft 874 cfs
Sun07/15 03:30 pm 45.8 ft 874 cfs
Sun07/15 03:15 pm 45.77 ft 818 cfs
Sun07/15 03:00 pm 45.76 ft 800 cfs
Sun07/15 02:45 pm 45.79 ft 855 cfs
Sun07/15 02:30 pm 45.79 ft 855 cfs
Sun07/15 02:15 pm 45.79 ft 855 cfs
Sun07/15 02:00 pm 45.76 ft 800 cfs
Sun07/15 01:45 pm 45.79 ft 855 cfs
Sun07/15 01:30 pm 45.78 ft 837 cfs
Sun07/15 01:15 pm 45.79 ft 855 cfs
Sun07/15 01:00 pm 45.78 ft 837 cfs
Sun07/15 12:45 pm 45.79 ft 855 cfs
Sun07/15 12:30 pm 45.79 ft 855 cfs
Sun07/15 12:15 pm 45.79 ft 855 cfs
Sun07/15 12:00 pm 45.79 ft 855 cfs
Sun07/15 11:45 am 45.79 ft 855 cfs
Sun07/15 11:30 am 45.79 ft 855 cfs

Latest Forecasts

Currently Forecasted Readings:
Mon07/16 05:00 pm 45.78 ft 833 cfs
Mon07/16 11:00 pm 45.77 ft 809 cfs
Tue07/17 05:00 am 45.76 ft 798 cfs
Tue07/17 11:00 am 45.75 ft 790 cfs
Tue07/17 05:00 pm 45.75 ft 776 cfs
Tue07/17 11:00 pm 45.74 ft 769 cfs
Wed07/18 05:00 am 45.74 ft 765 cfs
Wed07/18 11:00 am 45.73 ft 757 cfs
Wed07/18 05:00 pm 45.73 ft 745 cfs
Wed07/18 11:00 pm 45.72 ft 735 cfs
Thu07/19 05:00 am 45.72 ft 727 cfs
Thu07/19 11:00 am 45.71 ft 718 cfs
Thu07/19 05:00 pm 45.71 ft 710 cfs
Thu07/19 11:00 pm 45.7 ft 704 cfs
Fri07/20 05:00 am 45.7 ft 697 cfs
Fri07/20 11:00 am 45.7 ft 691 cfs
Fri07/20 05:00 pm 45.69 ft 685 cfs
Fri07/20 11:00 pm 45.69 ft 680 cfs
Sat07/21 05:00 am 45.69 ft 675 cfs
Sat07/21 11:00 am 45.68 ft 670 cfs
Sat07/21 05:00 pm 45.68 ft 664 cfs
Sat07/21 11:00 pm 45.67 ft 659 cfs
Sun07/22 05:00 am 45.67 ft 653 cfs
Sun07/22 11:00 am 45.67 ft 650 cfs
Sun07/22 05:00 pm 45.67 ft 646 cfs
Sun07/22 11:00 pm 45.66 ft 642 cfs
Mon07/23 05:00 am 45.66 ft 641 cfs
Mon07/23 11:00 am 45.66 ft 639 cfs
Mon07/23 05:00 pm 45.66 ft 636 cfs
Mon07/23 11:00 pm 45.66 ft 633 cfs
Tue07/24 05:00 am 45.66 ft 633 cfs
Tue07/24 11:00 am 45.66 ft 631 cfs
Tue07/24 05:00 pm 45.66 ft 630 cfs
Tue07/24 11:00 pm 45.65 ft 627 cfs
Wed07/25 05:00 am 45.65 ft 627 cfs
Wed07/25 11:00 am 45.65 ft 626 cfs
Wed07/25 05:00 pm 45.65 ft 623 cfs
Wed07/25 11:00 pm 45.65 ft 621 cfs
Thu07/26 05:00 am 45.65 ft 624 cfs

Snoqualmie River flood gauge data supplied by the
National Weather Service Northwest River Forecast Center.

Sign up for Floodzilla alerts.